Cabanillas del Campo, Spain
Current Conditions -  °F | °C
As of 11:00 AM on Thursday 27 Nov 2014 (Local Time) from LETO Reporting Station
Light Rain Light Rain  
Wind Chill: 52°   Ceiling: 4000
Heat Index: 52°   Visibility: 5mi
Dew Point: 46°   Wind: 5mph
Humidity: 82%   Direction: 160°SSE
Pressure: 29.65"   Gusts: NA
Location:  40.63°N, 3.23°W
Report Text: LETO 271000Z 16004KT 120V190 8000 -RA SCT025 BKN040 11/08 Q1004 NOSIG
Loading
Personal Weather Stations






























Interactive Weather Map New forecast layout! Learn more

10-Day Weather Forecast

Advertisements
Track Severe Weather on mobile